Terminal Aerodrome Forecast
Issued by NWS

Home | Current Version | Previous Version | Text Only | Print | Product List | Glossary On
Versions: 1 2 3 4 5 6 7 8 9 10 11 12 13 14 15 16 17 18 19 20 21 22 23 24
000
FTUS42 KTBW 252300 RRA
TAFLAL
TAF
KLAL 252347Z 2600/2624 23007KT 5SM -RA BR VCTS BKN015CB OVC025
      TEMPO 2601/2605 2SM TSRA BKN005CB
     FM260500 VRB04KT 4SM -RA BR BKN007 OVC020
     FM260900 27005KT 6SM -RA BR SCT007 BKN015 OVC030
     FM261400 34011KT P6SM -RA SCT020 OVC040
     FM261700 34011G18KT P6SM FEW020 BKN250
      AMD NOT SKED 2603/2612=

USA.gov is the U.S. government's official web portal to all federal, state and local government web resources and services.